sensor_id;sensor_type;location;lat;lon;timestamp;pressure;altitude;pressure_sealevel;temperature;humidity
50636;BME280;36598;46.054;11.130;2023-02-13T05:03:05;101333.06;;;3.40;53.25
50636;BME280;36598;46.054;11.130;2023-02-13T05:05:31;101335.94;;;3.12;53.97
50636;BME280;36598;46.054;11.130;2023-02-13T05:07:56;101336.16;;;3.47;53.93
50636;BME280;36598;46.054;11.130;2023-02-13T05:10:21;101342.19;;;3.04;54.29
50636;BME280;36598;46.054;11.130;2023-02-13T05:12:47;101344.41;;;3.02;54.46
50636;BME280;36598;46.054;11.130;2023-02-13T05:15:12;101336.34;;;2.74;55.37
50636;BME280;36598;46.054;11.130;2023-02-13T05:17:37;101339.03;;;2.52;56.66
50636;BME280;36598;46.054;11.130;2023-02-13T05:20:03;101342.47;;;2.44;56.99
50636;BME280;36598;46.054;11.130;2023-02-13T05:22:28;101340.22;;;2.60;56.86
50636;BME280;36598;46.054;11.130;2023-02-13T05:25:12;101341.97;;;2.78;55.91
50636;BME280;36598;46.054;11.130;2023-02-13T05:27:37;101349.94;;;2.88;55.55
50636;BME280;36598;46.054;11.130;2023-02-13T05:30:03;101351.97;;;3.28;54.89
50636;BME280;36598;46.054;11.130;2023-02-13T05:32:28;101342.97;;;3.27;54.66
50636;BME280;36598;46.054;11.130;2023-02-13T05:34:53;101349.50;;;3.17;54.63
50636;BME280;36598;46.054;11.130;2023-02-13T05:37:18;101351.84;;;3.33;53.82
50636;BME280;36598;46.054;11.130;2023-02-13T05:39:44;101354.41;;;3.07;54.86
50636;BME280;36598;46.054;11.130;2023-02-13T05:42:09;101359.69;;;3.03;54.93
50636;BME280;36598;46.054;11.130;2023-02-13T05:44:34;101361.28;;;2.59;56.51
50636;BME280;36598;46.054;11.130;2023-02-13T05:47:00;101362.56;;;2.25;57.70
50636;BME280;36598;46.054;11.130;2023-02-13T05:49:25;101363.53;;;2.57;56.73
50636;BME280;36598;46.054;11.130;2023-02-13T05:51:50;101371.13;;;2.83;55.65
50636;BME280;36598;46.054;11.130;2023-02-13T05:54:16;101369.88;;;2.89;56.10
50636;BME280;36598;46.054;11.130;2023-02-13T05:56:41;101365.16;;;3.03;55.30
50636;BME280;36598;46.054;11.130;2023-02-13T05:59:07;101371.88;;;2.97;54.89
50636;BME280;36598;46.054;11.130;2023-02-13T06:01:32;101365.91;;;2.95;55.92
50636;BME280;36598;46.054;11.130;2023-02-13T06:03:57;101370.75;;;3.20;54.24
50636;BME280;36598;46.054;11.130;2023-02-13T06:06:22;101371.41;;;3.17;54.96
50636;BME280;36598;46.054;11.130;2023-02-13T06:08:49;101379.06;;;2.70;56.51
50636;BME280;36598;46.054;11.130;2023-02-13T06:11:14;101376.09;;;3.03;56.09
50636;BME280;36598;46.054;11.130;2023-02-13T06:13:40;101380.56;;;2.99;55.69
50636;BME280;36598;46.054;11.130;2023-02-13T06:16:08;101382.00;;;3.19;55.47
50636;BME280;36598;46.054;11.130;2023-02-13T06:18:34;101385.16;;;3.12;55.07
50636;BME280;36598;46.054;11.130;2023-02-13T06:21:00;101380.56;;;2.99;56.27
50636;BME280;36598;46.054;11.130;2023-02-13T06:23:25;101386.81;;;3.13;55.64
50636;BME280;36598;46.054;11.130;2023-02-13T06:25:50;101398.63;;;3.00;56.10
50636;BME280;36598;46.054;11.130;2023-02-13T06:28:16;101393.28;;;3.17;54.99
50636;BME280;36598;46.054;11.130;2023-02-13T06:30:41;101400.53;;;2.99;55.34
50636;BME280;36598;46.054;11.130;2023-02-13T06:33:06;101398.50;;;2.69;56.63
50636;BME280;36598;46.054;11.130;2023-02-13T06:35:32;101405.97;;;2.77;56.34
50636;BME280;36598;46.054;11.130;2023-02-13T06:37:57;101405.59;;;2.70;57.44
50636;BME280;36598;46.054;11.130;2023-02-13T06:40:22;101407.59;;;2.78;56.57
50636;BME280;36598;46.054;11.130;2023-02-13T06:42:47;101413.63;;;2.39;58.01
50636;BME280;36598;46.054;11.130;2023-02-13T06:45:13;101403.44;;;3.03;56.57
50636;BME280;36598;46.054;11.130;2023-02-13T06:47:42;101403.91;;;3.19;55.83
50636;BME280;36598;46.054;11.130;2023-02-13T06:50:08;101402.09;;;3.14;55.84
50636;BME280;36598;46.054;11.130;2023-02-13T06:52:33;101399.22;;;3.19;55.19
50636;BME280;36598;46.054;11.130;2023-02-13T06:54:59;101406.22;;;3.25;55.38
50636;BME280;36598;46.054;11.130;2023-02-13T06:57:25;101402.09;;;3.37;55.00
50636;BME280;36598;46.054;11.130;2023-02-13T06:59:50;101403.13;;;3.49;54.36
50636;BME280;36598;46.054;11.130;2023-02-13T07:02:16;101410.47;;;3.40;54.67
50636;BME280;36598;46.054;11.130;2023-02-13T07:04:41;101401.69;;;3.30;55.66
50636;BME280;36598;46.054;11.130;2023-02-13T07:07:06;101400.56;;;3.53;54.42
50636;BME280;36598;46.054;11.130;2023-02-13T07:09:32;101404.06;;;3.45;55.37
50636;BME280;36598;46.054;11.130;2023-02-13T07:11:57;101404.78;;;3.59;54.61
50636;BME280;36598;46.054;11.130;2023-02-13T07:14:22;101408.25;;;3.73;54.13
50636;BME280;36598;46.054;11.130;2023-02-13T07:16:47;101408.06;;;3.39;54.87
50636;BME280;36598;46.054;11.130;2023-02-13T07:19:13;101400.66;;;3.70;54.04
50636;BME280;36598;46.054;11.130;2023-02-13T07:21:38;101403.09;;;3.72;53.52
50636;BME280;36598;46.054;11.130;2023-02-13T07:24:04;101403.53;;;3.65;54.20
50636;BME280;36598;46.054;11.130;2023-02-13T07:26:29;101408.66;;;3.58;54.24
50636;BME280;36598;46.054;11.130;2023-02-13T07:28:54;101406.28;;;3.65;54.25
50636;BME280;36598;46.054;11.130;2023-02-13T07:31:20;101411.66;;;3.48;54.42
50636;BME280;36598;46.054;11.130;2023-02-13T07:33:47;101404.47;;;3.92;53.53
50636;BME280;36598;46.054;11.130;2023-02-13T07:36:12;101408.31;;;3.82;53.78
50636;BME280;36598;46.054;11.130;2023-02-13T07:38:37;101404.69;;;4.04;53.35
50636;BME280;36598;46.054;11.130;2023-02-13T07:41:03;101402.78;;;3.73;53.98
50636;BME280;36598;46.054;11.130;2023-02-13T07:43:28;101403.09;;;4.12;52.97
50636;BME280;36598;46.054;11.130;2023-02-13T07:45:57;101408.03;;;3.61;54.28
50636;BME280;36598;46.054;11.130;2023-02-13T07:48:23;101400.84;;;3.74;53.88
50636;BME280;36598;46.054;11.130;2023-02-13T07:50:50;101408.28;;;4.22;52.97
50636;BME280;36598;46.054;11.130;2023-02-13T07:53:16;101395.44;;;3.91;53.14
50636;BME280;36598;46.054;11.130;2023-02-13T07:55:41;101402.59;;;4.10;53.24
50636;BME280;36598;46.054;11.130;2023-02-13T07:58:06;101397.41;;;3.99;53.11
50636;BME280;36598;46.054;11.130;2023-02-13T08:00:32;101401.97;;;4.13;53.13
50636;BME280;36598;46.054;11.130;2023-02-13T08:02:58;101402.00;;;4.21;52.95
50636;BME280;36598;46.054;11.130;2023-02-13T08:05:23;101403.63;;;4.31;53.08
50636;BME280;36598;46.054;11.130;2023-02-13T08:07:48;101404.63;;;4.44;52.53
50636;BME280;36598;46.054;11.130;2023-02-13T08:10:14;101403.25;;;4.98;51.20
50636;BME280;36598;46.054;11.130;2023-02-13T08:12:58;101405.94;;;4.46;52.76
50636;BME280;36598;46.054;11.130;2023-02-13T08:15:24;101388.31;;;11.52;37.65
50636;BME280;36598;46.054;11.130;2023-02-13T08:17:49;101383.03;;;16.17;29.11
50636;BME280;36598;46.054;11.130;2023-02-13T08:20:15;101387.41;;;19.21;24.39
50636;BME280;36598;46.054;11.130;2023-02-13T08:22:40;101383.34;;;23.99;19.40
50636;BME280;36598;46.054;11.130;2023-02-13T08:25:05;101376.75;;;25.78;17.06
50636;BME280;36598;46.054;11.130;2023-02-13T08:27:31;101377.88;;;26.57;16.49
50636;BME280;36598;46.054;11.130;2023-02-13T08:29:57;101376.41;;;26.99;15.64
50636;BME280;36598;46.054;11.130;2023-02-13T08:32:23;101368.44;;;27.30;15.34
50636;BME280;36598;46.054;11.130;2023-02-13T08:34:48;101366.09;;;28.43;14.29
50636;BME280;36598;46.054;11.130;2023-02-13T08:37:14;101364.97;;;29.53;13.62
50636;BME280;36598;46.054;11.130;2023-02-13T08:39:39;101366.31;;;29.23;13.61
50636;BME280;36598;46.054;11.130;2023-02-13T08:42:04;101359.34;;;31.02;12.31
50636;BME280;36598;46.054;11.130;2023-02-13T08:44:30;101361.41;;;29.73;12.82
50636;BME280;36598;46.054;11.130;2023-02-13T08:46:55;101361.41;;;32.84;11.03
50636;BME280;36598;46.054;11.130;2023-02-13T08:49:21;101355.72;;;32.95;10.67
50636;BME280;36598;46.054;11.130;2023-02-13T08:51:47;101355.97;;;33.59;10.60
50636;BME280;36598;46.054;11.130;2023-02-13T08:54:13;101354.09;;;34.89;9.58
50636;BME280;36598;46.054;11.130;2023-02-13T08:56:38;101340.66;;;35.08;9.64
50636;BME280;36598;46.054;11.130;2023-02-13T08:59:04;101350.44;;;32.65;10.92
50636;BME280;36598;46.054;11.130;2023-02-13T09:01:29;101333.84;;;34.70;9.34
50636;BME280;36598;46.054;11.130;2023-02-13T09:03:54;101334.84;;;35.69;9.24
50636;BME280;36598;46.054;11.130;2023-02-13T09:06:20;101333.25;;;35.43;9.08
50636;BME280;36598;46.054;11.130;2023-02-13T09:08:46;101335.06;;;35.46;8.66
50636;BME280;36598;46.054;11.130;2023-02-13T09:11:11;101331.13;;;36.17;8.71
50636;BME280;36598;46.054;11.130;2023-02-13T09:13:36;101324.66;;;36.68;8.38
50636;BME280;36598;46.054;11.130;2023-02-13T09:16:03;101327.44;;;37.38;7.96
50636;BME280;36598;46.054;11.130;2023-02-13T09:18:28;101325.91;;;37.04;8.13
50636;BME280;36598;46.054;11.130;2023-02-13T09:20:57;101324.22;;;36.96;8.32
50636;BME280;36598;46.054;11.130;2023-02-13T09:23:23;101318.78;;;37.77;7.70
50636;BME280;36598;46.054;11.130;2023-02-13T09:25:48;101312.38;;;35.37;8.87
50636;BME280;36598;46.054;11.130;2023-02-13T09:28:13;101312.38;;;35.07;9.18
50636;BME280;36598;46.054;11.130;2023-02-13T09:30:39;101320.72;;;32.57;10.55
50636;BME280;36598;46.054;11.130;2023-02-13T09:33:04;101313.69;;;30.35;12.26
50636;BME280;36598;46.054;11.130;2023-02-13T09:35:33;101313.72;;;29.94;12.27
50636;BME280;36598;46.054;11.130;2023-02-13T09:37:59;101321.38;;;26.78;14.53
50636;BME280;36598;46.054;11.130;2023-02-13T09:42:50;101309.97;;;26.96;14.56
50636;BME280;36598;46.054;11.130;2023-02-13T09:45:17;101309.06;;;26.16;15.32
50636;BME280;36598;46.054;11.130;2023-02-13T09:47:44;101309.44;;;26.55;14.88
50636;BME280;36598;46.054;11.130;2023-02-13T09:52:35;101309.38;;;28.15;13.77
50636;BME280;36598;46.054;11.130;2023-02-13T09:55:02;101300.94;;;28.89;13.25
50636;BME280;36598;46.054;11.130;2023-02-13T09:57:39;101308.91;;;28.70;13.49
50636;BME280;36598;46.054;11.130;2023-02-13T10:05:23;101292.44;;;29.95;12.45
50636;BME280;36598;46.054;11.130;2023-02-13T10:13:15;101288.22;;;31.15;11.57
50636;BME280;36598;46.054;11.130;2023-02-13T10:15:47;101284.13;;;31.64;11.57
50636;BME280;36598;46.054;11.130;2023-02-13T10:18:15;101275.56;;;30.64;11.83
50636;BME280;36598;46.054;11.130;2023-02-13T10:28:16;101275.88;;;34.19;9.66
50636;BME280;36598;46.054;11.130;2023-02-13T10:30:51;101268.34;;;32.62;10.48
50636;BME280;36598;46.054;11.130;2023-02-13T10:33:22;101262.97;;;34.37;9.46
50636;BME280;36598;46.054;11.130;2023-02-13T10:38:25;101239.34;;;34.55;9.90
50636;BME280;36598;46.054;11.130;2023-02-13T10:40:59;101239.53;;;35.48;9.04
50636;BME280;36598;46.054;11.130;2023-02-13T10:43:28;101242.00;;;35.81;9.02
50636;BME280;36598;46.054;11.130;2023-02-13T10:58:34;101213.56;;;37.99;7.94
50636;BME280;36598;46.054;11.130;2023-02-13T11:03:37;101201.34;;;37.80;7.53
50636;BME280;36598;46.054;11.130;2023-02-13T11:06:06;101183.31;;;38.35;7.71
50636;BME280;36598;46.054;11.130;2023-02-13T11:08:34;101189.84;;;35.66;9.03
50636;BME280;36598;46.054;11.130;2023-02-13T11:11:00;101175.22;;;38.20;7.21
50636;BME280;36598;46.054;11.130;2023-02-13T11:13:26;101175.38;;;34.13;9.19
50636;BME280;36598;46.054;11.130;2023-02-13T11:18:20;101167.63;;;35.42;8.98
50636;BME280;36598;46.054;11.130;2023-02-13T11:20:46;101159.03;;;35.99;8.75
50636;BME280;36598;46.054;11.130;2023-02-13T11:23:18;101148.59;;;35.77;8.55
50636;BME280;36598;46.054;11.130;2023-02-13T11:28:21;101144.84;;;36.20;8.74
50636;BME280;36598;46.054;11.130;2023-02-13T11:30:47;101139.97;;;34.66;9.38
50636;BME280;36598;46.054;11.130;2023-02-13T11:35:41;101131.91;;;34.58;9.54
50636;BME280;36598;46.054;11.130;2023-02-13T11:40:32;101125.44;;;34.17;9.37
50636;BME280;36598;46.054;11.130;2023-02-13T11:42:57;101124.56;;;33.45;10.19
50636;BME280;36598;46.054;11.130;2023-02-13T11:45:23;101123.19;;;34.09;9.45
50636;BME280;36598;46.054;11.130;2023-02-13T11:47:50;101120.19;;;34.56;9.74
50636;BME280;36598;46.054;11.130;2023-02-13T11:52:44;101124.03;;;32.21;10.92
50636;BME280;36598;46.054;11.130;2023-02-13T11:55:27;101107.47;;;33.17;10.10
50636;BME280;36598;46.054;11.130;2023-02-13T12:00:37;101108.78;;;30.99;13.36
50636;BME280;36598;46.054;11.130;2023-02-13T12:08:31;101095.78;;;27.27;14.21
50636;BME280;36598;46.054;11.130;2023-02-13T12:10:57;101097.31;;;25.86;15.36
50636;BME280;36598;46.054;11.130;2023-02-13T12:13:34;101095.78;;;24.40;16.67
50636;BME280;36598;46.054;11.130;2023-02-13T12:16:06;101087.28;;;23.43;17.28
50636;BME280;36598;46.054;11.130;2023-02-13T12:18:39;101095.09;;;22.66;18.36
50636;BME280;36598;46.054;11.130;2023-02-13T12:24:12;101089.19;;;21.22;19.93
50636;BME280;36598;46.054;11.130;2023-02-13T12:26:43;101085.91;;;20.06;21.12
50636;BME280;36598;46.054;11.130;2023-02-13T12:29:22;101084.63;;;19.90;21.55
50636;BME280;36598;46.054;11.130;2023-02-13T12:39:34;101067.53;;;18.98;22.74
50636;BME280;36598;46.054;11.130;2023-02-13T12:44:36;101054.75;;;18.43;23.44
50636;BME280;36598;46.054;11.130;2023-02-13T13:02:27;101038.53;;;17.35;24.93
50636;BME280;36598;46.054;11.130;2023-02-13T13:13:13;101024.53;;;16.49;25.80
50636;BME280;36598;46.054;11.130;2023-02-13T13:23:43;101020.72;;;16.21;26.59
50636;BME280;36598;46.054;11.130;2023-02-13T13:26:29;101015.94;;;16.22;26.75
50636;BME280;36598;46.054;11.130;2023-02-13T13:29:00;101012.91;;;16.54;26.26
50636;BME280;36598;46.054;11.130;2023-02-13T13:31:27;101013.09;;;16.33;26.87
50636;BME280;36598;46.054;11.130;2023-02-13T13:33:56;101010.91;;;15.99;26.90
50636;BME280;36598;46.054;11.130;2023-02-13T13:49:56;100992.19;;;14.69;28.93
50636;BME280;36598;46.054;11.130;2023-02-13T13:52:26;100995.75;;;14.91;28.73
50636;BME280;36598;46.054;11.130;2023-02-13T13:54:52;101000.47;;;14.26;29.51
50636;BME280;36598;46.054;11.130;2023-02-13T13:57:22;100994.97;;;14.65;28.60
50636;BME280;36598;46.054;11.130;2023-02-13T14:04:59;100986.94;;;15.07;28.15
50636;BME280;36598;46.054;11.130;2023-02-13T14:07:24;100983.56;;;15.65;27.38
50636;BME280;36598;46.054;11.130;2023-02-13T14:09:50;100993.84;;;15.83;27.13
50636;BME280;36598;46.054;11.130;2023-02-13T14:15:25;100976.41;;;15.53;27.33
50636;BME280;36598;46.054;11.130;2023-02-13T14:17:52;100971.59;;;15.61;27.26
50636;BME280;36598;46.054;11.130;2023-02-13T14:22:53;100967.25;;;15.49;27.55
50636;BME280;36598;46.054;11.130;2023-02-13T14:25:25;100967.66;;;15.51;27.55
50636;BME280;36598;46.054;11.130;2023-02-13T14:27:55;100972.91;;;15.32;27.88
50636;BME280;36598;46.054;11.130;2023-02-13T14:30:25;100970.53;;;15.30;28.04
50636;BME280;36598;46.054;11.130;2023-02-13T14:32:51;100962.13;;;15.41;28.07
50636;BME280;36598;46.054;11.130;2023-02-13T14:35:22;100960.75;;;15.81;27.38
50636;BME280;36598;46.054;11.130;2023-02-13T14:37:52;100955.22;;;15.74;27.46
50636;BME280;36598;46.054;11.130;2023-02-13T14:42:44;100955.91;;;15.92;27.17
50636;BME280;36598;46.054;11.130;2023-02-13T14:45:17;100956.31;;;15.91;27.45
50636;BME280;36598;46.054;11.130;2023-02-13T14:47:47;100963.47;;;15.92;27.66
50636;BME280;36598;46.054;11.130;2023-02-13T14:50:19;100959.75;;;15.39;27.81
50636;BME280;36598;46.054;11.130;2023-02-13T14:52:45;100956.09;;;15.49;27.71
50636;BME280;36598;46.054;11.130;2023-02-13T14:55:13;100956.78;;;15.78;27.23
50636;BME280;36598;46.054;11.130;2023-02-13T14:57:44;100959.44;;;16.00;27.25
50636;BME280;36598;46.054;11.130;2023-02-13T15:00:36;100953.47;;;15.07;27.99
50636;BME280;36598;46.054;11.130;2023-02-13T15:05:40;100964.72;;;14.49;29.35
50636;BME280;36598;46.054;11.130;2023-02-13T15:08:15;100955.19;;;14.65;32.88
50636;BME280;36598;46.054;11.130;2023-02-13T15:15:50;100959.13;;;14.32;29.71
50636;BME280;36598;46.054;11.130;2023-02-13T15:18:20;100965.34;;;13.61;31.57
50636;BME280;36598;46.054;11.130;2023-02-13T15:20:46;100959.31;;;13.34;32.17
50636;BME280;36598;46.054;11.130;2023-02-13T15:23:18;100958.22;;;13.63;30.87
50636;BME280;36598;46.054;11.130;2023-02-13T15:25:44;100956.69;;;13.87;31.00
50636;BME280;36598;46.054;11.130;2023-02-13T15:28:18;100958.19;;;13.56;31.81
50636;BME280;36598;46.054;11.130;2023-02-13T15:30:51;100951.81;;;13.45;32.60
50636;BME280;36598;46.054;11.130;2023-02-13T15:33:18;100959.72;;;13.32;32.55
50636;BME280;36598;46.054;11.130;2023-02-13T15:35:43;100955.63;;;13.19;32.52
50636;BME280;36598;46.054;11.130;2023-02-13T15:40:43;100956.09;;;13.24;32.95
50636;BME280;36598;46.054;11.130;2023-02-13T15:43:22;100960.81;;;13.20;34.05
50636;BME280;36598;46.054;11.130;2023-02-13T15:45:49;100961.28;;;13.30;32.87
50636;BME280;36598;46.054;11.130;2023-02-13T15:48:15;100964.56;;;12.84;34.49
50636;BME280;36598;46.054;11.130;2023-02-13T15:50:41;100967.91;;;12.52;34.88
50636;BME280;36598;46.054;11.130;2023-02-13T15:53:09;100968.78;;;12.63;35.20
50636;BME280;36598;46.054;11.130;2023-02-13T15:55:36;100963.28;;;12.70;35.37
50636;BME280;36598;46.054;11.130;2023-02-13T15:58:02;100975.16;;;12.67;35.96
50636;BME280;36598;46.054;11.130;2023-02-13T16:00:29;100981.13;;;12.69;36.71
50636;BME280;36598;46.054;11.130;2023-02-13T16:02:55;100975.16;;;12.19;37.39
50636;BME280;36598;46.054;11.130;2023-02-13T16:05:21;100978.69;;;12.13;36.88
50636;BME280;36598;46.054;11.130;2023-02-13T16:07:49;100979.47;;;12.13;36.61
50636;BME280;36598;46.054;11.130;2023-02-13T16:10:33;100986.06;;;11.64;38.47
50636;BME280;36598;46.054;11.130;2023-02-13T16:13:05;100981.78;;;11.70;37.75
50636;BME280;36598;46.054;11.130;2023-02-13T16:15:32;100986.44;;;11.96;38.06
50636;BME280;36598;46.054;11.130;2023-02-13T16:17:58;100991.25;;;12.03;37.27
50636;BME280;36598;46.054;11.130;2023-02-13T16:20:25;100987.91;;;11.53;38.74
50636;BME280;36598;46.054;11.130;2023-02-13T16:22:52;100994.66;;;11.52;38.76
50636;BME280;36598;46.054;11.130;2023-02-13T16:27:59;101004.72;;;11.67;39.82
50636;BME280;36598;46.054;11.130;2023-02-13T16:30:30;101009.06;;;11.68;39.12
50636;BME280;36598;46.054;11.130;2023-02-13T16:35:42;101013.84;;;11.38;39.88
50636;BME280;36598;46.054;11.130;2023-02-13T16:38:25;101013.06;;;11.37;39.82
50636;BME280;36598;46.054;11.130;2023-02-13T16:40:51;101016.66;;;11.41;40.27
50636;BME280;36598;46.054;11.130;2023-02-13T16:48:57;101033.13;;;10.51;41.69
50636;BME280;36598;46.054;11.130;2023-02-13T17:07:18;101057.16;;;10.47;42.51
50636;BME280;36598;46.054;11.130;2023-02-13T17:09:43;101071.13;;;9.92;42.97
50636;BME280;36598;46.054;11.130;2023-02-13T17:12:13;101077.22;;;9.63;43.77
50636;BME280;36598;46.054;11.130;2023-02-13T17:14:39;101080.53;;;9.68;42.90
50636;BME280;36598;46.054;11.130;2023-02-13T17:17:08;101076.81;;;9.80;43.45
50636;BME280;36598;46.054;11.130;2023-02-13T17:19:35;101084.13;;;9.34;43.80
50636;BME280;36598;46.054;11.130;2023-02-13T17:22:00;101093.13;;;9.31;44.62
50636;BME280;36598;46.054;11.130;2023-02-13T17:24:26;101090.06;;;9.00;45.37
50636;BME280;36598;46.054;11.130;2023-02-13T17:26:51;101094.97;;;8.91;45.77
50636;BME280;36598;46.054;11.130;2023-02-13T17:29:16;101090.22;;;8.92;45.80
50636;BME280;36598;46.054;11.130;2023-02-13T17:31:42;101096.09;;;9.06;45.25
50636;BME280;36598;46.054;11.130;2023-02-13T17:34:09;101098.47;;;9.08;45.72
50636;BME280;36598;46.054;11.130;2023-02-13T17:36:34;101103.88;;;9.36;44.81
50636;BME280;36598;46.054;11.130;2023-02-13T17:39:00;101108.63;;;9.54;44.95
50636;BME280;36598;46.054;11.130;2023-02-13T17:41:25;101100.69;;;9.69;44.00
50636;BME280;36598;46.054;11.130;2023-02-13T17:43:50;101108.31;;;9.75;43.17
50636;BME280;36598;46.054;11.130;2023-02-13T17:46:15;101111.56;;;9.62;43.99
50636;BME280;36598;46.054;11.130;2023-02-13T17:48:41;101114.63;;;8.90;45.54
50636;BME280;36598;46.054;11.130;2023-02-13T17:51:08;101119.06;;;9.10;45.51
50636;BME280;36598;46.054;11.130;2023-02-13T17:53:34;101116.69;;;9.09;45.41
50636;BME280;36598;46.054;11.130;2023-02-13T17:56:00;101124.66;;;9.30;45.03
50636;BME280;36598;46.054;11.130;2023-02-13T17:58:25;101124.22;;;9.27;45.53
50636;BME280;36598;46.054;11.130;2023-02-13T18:00:51;101128.88;;;8.92;45.62
50636;BME280;36598;46.054;11.130;2023-02-13T18:03:16;101132.34;;;9.05;46.22
50636;BME280;36598;46.054;11.130;2023-02-13T18:05:41;101131.94;;;8.43;47.36
50636;BME280;36598;46.054;11.130;2023-02-13T18:08:07;101128.03;;;8.44;47.86
50636;BME280;36598;46.054;11.130;2023-02-13T18:10:33;101131.53;;;8.72;46.74
50636;BME280;36598;46.054;11.130;2023-02-13T18:12:59;101128.56;;;8.21;48.30
50636;BME280;36598;46.054;11.130;2023-02-13T18:15:35;101127.63;;;8.73;47.38
50636;BME280;36598;46.054;11.130;2023-02-13T18:18:02;101131.03;;;8.83;46.80
50636;BME280;36598;46.054;11.130;2023-02-13T18:20:28;101129.31;;;8.34;48.00
50636;BME280;36598;46.054;11.130;2023-02-13T18:22:54;101133.38;;;8.24;48.28
50636;BME280;36598;46.054;11.130;2023-02-13T18:25:19;101133.91;;;8.14;49.07
50636;BME280;36598;46.054;11.130;2023-02-13T18:27:45;101134.38;;;8.32;48.71
50636;BME280;36598;46.054;11.130;2023-02-13T18:30:11;101134.00;;;8.46;48.00
50636;BME280;36598;46.054;11.130;2023-02-13T18:32:36;101141.25;;;8.66;47.30
50636;BME280;36598;46.054;11.130;2023-02-13T18:35:02;101132.34;;;8.73;47.41
50636;BME280;36598;46.054;11.130;2023-02-13T18:37:27;101139.22;;;8.35;48.59
50636;BME280;36598;46.054;11.130;2023-02-13T18:39:54;101136.22;;;8.40;48.69
50636;BME280;36598;46.054;11.130;2023-02-13T18:42:19;101138.03;;;8.08;49.22
50636;BME280;36598;46.054;11.130;2023-02-13T18:44:44;101140.81;;;8.08;49.22
50636;BME280;36598;46.054;11.130;2023-02-13T18:47:10;101143.72;;;8.27;48.69
50636;BME280;36598;46.054;11.130;2023-02-13T18:49:35;101152.16;;;8.47;48.33
50636;BME280;36598;46.054;11.130;2023-02-13T18:52:00;101153.78;;;8.48;48.00
50636;BME280;36598;46.054;11.130;2023-02-13T18:54:26;101145.91;;;8.22;48.73
50636;BME280;36598;46.054;11.130;2023-02-13T18:56:51;101151.81;;;8.08;49.68
50636;BME280;36598;46.054;11.130;2023-02-13T18:59:16;101148.13;;;7.88;50.16
50636;BME280;36598;46.054;11.130;2023-02-13T19:01:43;101153.81;;;7.55;50.85
50636;BME280;36598;46.054;11.130;2023-02-13T19:04:08;101156.16;;;7.81;50.15
50636;BME280;36598;46.054;11.130;2023-02-13T19:06:34;101155.00;;;8.22;48.89
50636;BME280;36598;46.054;11.130;2023-02-13T19:09:02;101162.81;;;8.20;48.89
50636;BME280;36598;46.054;11.130;2023-02-13T19:11:27;101160.06;;;8.20;48.91
50636;BME280;36598;46.054;11.130;2023-02-13T19:13:56;101164.41;;;8.21;49.05
50636;BME280;36598;46.054;11.130;2023-02-13T19:16:22;101166.78;;;8.07;49.64
50636;BME280;36598;46.054;11.130;2023-02-13T19:18:49;101166.03;;;8.22;48.88
50636;BME280;36598;46.054;11.130;2023-02-13T19:21:17;101168.50;;;7.99;49.68
50636;BME280;36598;46.054;11.130;2023-02-13T19:23:42;101176.63;;;8.08;49.02
50636;BME280;36598;46.054;11.130;2023-02-13T19:26:09;101168.06;;;8.25;48.60
50636;BME280;36598;46.054;11.130;2023-02-13T19:28:34;101169.88;;;8.06;49.09
50636;BME280;36598;46.054;11.130;2023-02-13T19:31:02;101173.69;;;8.01;49.38
50636;BME280;36598;46.054;11.130;2023-02-13T19:33:27;101175.59;;;7.23;50.86
50636;BME280;36598;46.054;11.130;2023-02-13T19:35:59;101179.03;;;7.45;50.32
50636;BME280;36598;46.054;11.130;2023-02-13T19:38:25;101185.78;;;7.84;49.37
50636;BME280;36598;46.054;11.130;2023-02-13T19:40:50;101184.44;;;7.66;50.11
50636;BME280;36598;46.054;11.130;2023-02-13T19:43:15;101182.72;;;7.49;50.70
50636;BME280;36598;46.054;11.130;2023-02-13T19:45:41;101194.19;;;7.63;50.38
50636;BME280;36598;46.054;11.130;2023-02-13T19:48:07;101190.50;;;7.84;49.86
50636;BME280;36598;46.054;11.130;2023-02-13T19:50:33;101195.88;;;7.92;49.58
50636;BME280;36598;46.054;11.130;2023-02-13T19:52:58;101197.66;;;7.36;50.79
50636;BME280;36598;46.054;11.130;2023-02-13T19:55:23;101196.28;;;7.42;51.19
50636;BME280;36598;46.054;11.130;2023-02-13T19:57:49;101193.28;;;7.35;51.30
50636;BME280;36598;46.054;11.130;2023-02-13T20:00:15;101199.28;;;7.37;50.75
50636;BME280;36598;46.054;11.130;2023-02-13T20:02:41;101204.53;;;7.30;51.37
50636;BME280;36598;46.054;11.130;2023-02-13T20:05:06;101208.41;;;7.41;50.69
50636;BME280;36598;46.054;11.130;2023-02-13T20:07:32;101215.88;;;7.40;50.75
50636;BME280;36598;46.054;11.130;2023-02-13T20:09:58;101206.59;;;7.45;51.06
50636;BME280;36598;46.054;11.130;2023-02-13T20:12:23;101203.28;;;7.39;51.17
50636;BME280;36598;46.054;11.130;2023-02-13T20:14:49;101217.28;;;7.59;50.50
50636;BME280;36598;46.054;11.130;2023-02-13T20:17:14;101215.31;;;7.22;51.55
50636;BME280;36598;46.054;11.130;2023-02-13T20:19:39;101219.88;;;7.18;51.40
50636;BME280;36598;46.054;11.130;2023-02-13T20:22:04;101214.88;;;7.33;51.12
50636;BME280;36598;46.054;11.130;2023-02-13T20:24:30;101223.78;;;7.05;52.33
50636;BME280;36598;46.054;11.130;2023-02-13T20:26:57;101213.47;;;7.14;51.63
50636;BME280;36598;46.054;11.130;2023-02-13T20:29:22;101214.88;;;7.33;50.81
50636;BME280;36598;46.054;11.130;2023-02-13T20:31:48;101216.19;;;6.90;52.48
50636;BME280;36598;46.054;11.130;2023-02-13T20:34:13;101219.34;;;6.80;52.78
50636;BME280;36598;46.054;11.130;2023-02-13T20:36:38;101223.09;;;6.63;53.22